sensor_id;sensor_type;location;lat;lon;timestamp;temperature;humidity
39067;DHT22;24821;51.988;6.020;2024-03-07T00:02:19;6.30;99.90
39067;DHT22;24821;51.988;6.020;2024-03-07T00:04:45;6.30;99.90
39067;DHT22;24821;51.988;6.020;2024-03-07T00:07:10;6.30;99.90
39067;DHT22;24821;51.988;6.020;2024-03-07T00:09:36;6.30;99.90
39067;DHT22;24821;51.988;6.020;2024-03-07T00:12:01;6.30;99.90
39067;DHT22;24821;51.988;6.020;2024-03-07T00:14:27;6.30;99.90
39067;DHT22;24821;51.988;6.020;2024-03-07T00:16:53;6.20;99.90
39067;DHT22;24821;51.988;6.020;2024-03-07T00:19:18;6.20;99.90
39067;DHT22;24821;51.988;6.020;2024-03-07T00:21:44;6.20;99.90
39067;DHT22;24821;51.988;6.020;2024-03-07T00:24:09;6.20;99.90
39067;DHT22;24821;51.988;6.020;2024-03-07T00:26:35;6.20;99.90
39067;DHT22;24821;51.988;6.020;2024-03-07T00:29:01;6.20;99.90
39067;DHT22;24821;51.988;6.020;2024-03-07T00:31:27;6.20;99.90
39067;DHT22;24821;51.988;6.020;2024-03-07T00:33:54;6.20;99.90
39067;DHT22;24821;51.988;6.020;2024-03-07T00:36:21;6.10;99.90
39067;DHT22;24821;51.988;6.020;2024-03-07T00:38:47;6.10;99.90
39067;DHT22;24821;51.988;6.020;2024-03-07T00:41:14;6.10;99.90
39067;DHT22;24821;51.988;6.020;2024-03-07T00:43:40;6.10;99.90
39067;DHT22;24821;51.988;6.020;2024-03-07T00:46:07;6.10;99.90
39067;DHT22;24821;51.988;6.020;2024-03-07T00:48:32;6.10;99.90
39067;DHT22;24821;51.988;6.020;2024-03-07T00:50:58;6.10;99.90
39067;DHT22;24821;51.988;6.020;2024-03-07T00:53:23;6.00;99.90
39067;DHT22;24821;51.988;6.020;2024-03-07T00:55:48;6.00;99.90
39067;DHT22;24821;51.988;6.020;2024-03-07T00:58:14;6.00;99.90
39067;DHT22;24821;51.988;6.020;2024-03-07T01:00:40;6.00;99.90
39067;DHT22;24821;51.988;6.020;2024-03-07T01:03:08;6.00;99.90
39067;DHT22;24821;51.988;6.020;2024-03-07T01:05:36;6.00;99.90
39067;DHT22;24821;51.988;6.020;2024-03-07T01:08:03;6.00;99.90
39067;DHT22;24821;51.988;6.020;2024-03-07T01:10:29;6.00;99.90
39067;DHT22;24821;51.988;6.020;2024-03-07T01:12:55;5.90;99.90
39067;DHT22;24821;51.988;6.020;2024-03-07T01:15:23;5.90;99.90
39067;DHT22;24821;51.988;6.020;2024-03-07T01:17:48;5.90;99.90
39067;DHT22;24821;51.988;6.020;2024-03-07T01:20:14;5.90;99.90
39067;DHT22;24821;51.988;6.020;2024-03-07T01:22:39;5.90;99.90
39067;DHT22;24821;51.988;6.020;2024-03-07T01:25:05;5.90;99.90
39067;DHT22;24821;51.988;6.020;2024-03-07T01:27:32;5.90;99.90
39067;DHT22;24821;51.988;6.020;2024-03-07T01:29:57;5.90;99.90
39067;DHT22;24821;51.988;6.020;2024-03-07T01:32:23;5.90;99.90
39067;DHT22;24821;51.988;6.020;2024-03-07T01:34:48;5.90;99.90
39067;DHT22;24821;51.988;6.020;2024-03-07T01:37:14;5.80;99.90
39067;DHT22;24821;51.988;6.020;2024-03-07T01:39:39;5.80;99.90
39067;DHT22;24821;51.988;6.020;2024-03-07T01:42:04;5.80;99.90
39067;DHT22;24821;51.988;6.020;2024-03-07T01:44:30;5.80;99.90
39067;DHT22;24821;51.988;6.020;2024-03-07T01:46:58;5.80;99.90
39067;DHT22;24821;51.988;6.020;2024-03-07T01:49:23;5.80;99.90
39067;DHT22;24821;51.988;6.020;2024-03-07T01:51:49;5.80;99.90
39067;DHT22;24821;51.988;6.020;2024-03-07T01:54:14;5.80;99.90
39067;DHT22;24821;51.988;6.020;2024-03-07T01:56:40;5.80;99.90
39067;DHT22;24821;51.988;6.020;2024-03-07T01:59:06;5.80;99.90
39067;DHT22;24821;51.988;6.020;2024-03-07T02:01:32;5.70;99.90
39067;DHT22;24821;51.988;6.020;2024-03-07T02:03:58;5.70;99.90
39067;DHT22;24821;51.988;6.020;2024-03-07T02:06:24;5.70;99.90
39067;DHT22;24821;51.988;6.020;2024-03-07T02:08:50;5.70;99.90
39067;DHT22;24821;51.988;6.020;2024-03-07T02:11:16;5.70;99.90
39067;DHT22;24821;51.988;6.020;2024-03-07T02:13:42;5.70;99.90
39067;DHT22;24821;51.988;6.020;2024-03-07T02:16:07;5.70;99.90
39067;DHT22;24821;51.988;6.020;2024-03-07T02:18:33;5.70;99.90
39067;DHT22;24821;51.988;6.020;2024-03-07T02:20:59;5.70;99.90
39067;DHT22;24821;51.988;6.020;2024-03-07T02:23:25;5.70;99.90
39067;DHT22;24821;51.988;6.020;2024-03-07T02:25:51;5.80;99.90
39067;DHT22;24821;51.988;6.020;2024-03-07T02:28:17;5.70;99.90
39067;DHT22;24821;51.988;6.020;2024-03-07T02:30:42;5.80;99.90
39067;DHT22;24821;51.988;6.020;2024-03-07T02:33:10;5.70;99.90
39067;DHT22;24821;51.988;6.020;2024-03-07T02:35:37;5.70;99.90
39067;DHT22;24821;51.988;6.020;2024-03-07T02:38:03;5.80;99.90
39067;DHT22;24821;51.988;6.020;2024-03-07T02:40:29;5.70;99.90
39067;DHT22;24821;51.988;6.020;2024-03-07T02:42:55;5.70;99.90
39067;DHT22;24821;51.988;6.020;2024-03-07T02:45:21;5.70;99.90
39067;DHT22;24821;51.988;6.020;2024-03-07T02:47:46;5.80;99.90
39067;DHT22;24821;51.988;6.020;2024-03-07T02:50:11;5.80;99.90
39067;DHT22;24821;51.988;6.020;2024-03-07T02:52:37;5.80;99.90
39067;DHT22;24821;51.988;6.020;2024-03-07T02:55:03;5.70;99.90
39067;DHT22;24821;51.988;6.020;2024-03-07T02:57:30;5.70;99.90
39067;DHT22;24821;51.988;6.020;2024-03-07T02:59:55;5.70;99.90
39067;DHT22;24821;51.988;6.020;2024-03-07T03:02:22;5.60;99.90
39067;DHT22;24821;51.988;6.020;2024-03-07T03:04:47;5.60;99.90
39067;DHT22;24821;51.988;6.020;2024-03-07T03:07:13;5.60;99.90
39067;DHT22;24821;51.988;6.020;2024-03-07T03:09:38;5.60;99.90
39067;DHT22;24821;51.988;6.020;2024-03-07T03:12:08;5.50;99.90
39067;DHT22;24821;51.988;6.020;2024-03-07T03:14:34;5.50;99.90
39067;DHT22;24821;51.988;6.020;2024-03-07T03:17:00;5.50;99.90
39067;DHT22;24821;51.988;6.020;2024-03-07T03:19:25;5.40;99.90
39067;DHT22;24821;51.988;6.020;2024-03-07T03:21:52;5.40;99.90
39067;DHT22;24821;51.988;6.020;2024-03-07T03:24:17;5.40;99.90
39067;DHT22;24821;51.988;6.020;2024-03-07T03:26:43;5.40;99.90
39067;DHT22;24821;51.988;6.020;2024-03-07T03:29:09;5.40;99.90
39067;DHT22;24821;51.988;6.020;2024-03-07T03:31:36;5.30;99.90
39067;DHT22;24821;51.988;6.020;2024-03-07T03:34:02;5.40;99.90
39067;DHT22;24821;51.988;6.020;2024-03-07T03:36:28;5.30;99.90
39067;DHT22;24821;51.988;6.020;2024-03-07T03:38:54;5.30;99.90
39067;DHT22;24821;51.988;6.020;2024-03-07T03:41:20;5.30;99.90
39067;DHT22;24821;51.988;6.020;2024-03-07T03:43:45;5.30;99.90
39067;DHT22;24821;51.988;6.020;2024-03-07T03:46:12;5.30;99.90
39067;DHT22;24821;51.988;6.020;2024-03-07T03:48:38;5.20;99.90
39067;DHT22;24821;51.988;6.020;2024-03-07T03:51:04;5.20;99.90
39067;DHT22;24821;51.988;6.020;2024-03-07T03:53:29;5.20;99.90
39067;DHT22;24821;51.988;6.020;2024-03-07T03:55:55;5.20;99.90
39067;DHT22;24821;51.988;6.020;2024-03-07T03:58:20;5.20;99.90
39067;DHT22;24821;51.988;6.020;2024-03-07T04:00:46;5.20;99.90
39067;DHT22;24821;51.988;6.020;2024-03-07T04:03:11;5.20;99.90
39067;DHT22;24821;51.988;6.020;2024-03-07T04:05:37;5.10;99.90
39067;DHT22;24821;51.988;6.020;2024-03-07T04:08:02;5.10;99.90
39067;DHT22;24821;51.988;6.020;2024-03-07T04:10:29;5.10;99.90
39067;DHT22;24821;51.988;6.020;2024-03-07T04:12:54;5.10;99.90
39067;DHT22;24821;51.988;6.020;2024-03-07T04:15:20;5.10;99.90
39067;DHT22;24821;51.988;6.020;2024-03-07T04:17:46;5.10;99.90
39067;DHT22;24821;51.988;6.020;2024-03-07T04:20:11;5.00;99.90
39067;DHT22;24821;51.988;6.020;2024-03-07T04:22:38;5.00;99.90
39067;DHT22;24821;51.988;6.020;2024-03-07T04:25:04;5.00;99.90
39067;DHT22;24821;51.988;6.020;2024-03-07T04:27:31;5.00;99.90
39067;DHT22;24821;51.988;6.020;2024-03-07T04:29:57;5.00;99.90
39067;DHT22;24821;51.988;6.020;2024-03-07T04:32:22;5.00;99.90
39067;DHT22;24821;51.988;6.020;2024-03-07T04:34:48;4.90;99.90
39067;DHT22;24821;51.988;6.020;2024-03-07T04:37:14;5.00;99.90
39067;DHT22;24821;51.988;6.020;2024-03-07T04:39:39;4.90;99.90
39067;DHT22;24821;51.988;6.020;2024-03-07T04:42:05;4.90;99.90
39067;DHT22;24821;51.988;6.020;2024-03-07T04:44:31;4.90;99.90
39067;DHT22;24821;51.988;6.020;2024-03-07T04:46:58;4.90;99.90
39067;DHT22;24821;51.988;6.020;2024-03-07T04:49:24;4.80;99.90
39067;DHT22;24821;51.988;6.020;2024-03-07T04:51:53;4.80;99.90
39067;DHT22;24821;51.988;6.020;2024-03-07T04:54:21;4.80;99.90
39067;DHT22;24821;51.988;6.020;2024-03-07T04:56:47;4.80;99.90
39067;DHT22;24821;51.988;6.020;2024-03-07T04:59:13;4.80;99.90
39067;DHT22;24821;51.988;6.020;2024-03-07T05:01:39;4.80;99.90
39067;DHT22;24821;51.988;6.020;2024-03-07T05:04:08;4.80;99.90
39067;DHT22;24821;51.988;6.020;2024-03-07T05:06:34;4.80;99.90
39067;DHT22;24821;51.988;6.020;2024-03-07T05:09:03;4.70;99.90
39067;DHT22;24821;51.988;6.020;2024-03-07T05:11:29;4.70;99.90
39067;DHT22;24821;51.988;6.020;2024-03-07T05:13:55;4.70;99.90
39067;DHT22;24821;51.988;6.020;2024-03-07T05:16:20;4.70;99.90
39067;DHT22;24821;51.988;6.020;2024-03-07T05:18:46;4.70;99.90
39067;DHT22;24821;51.988;6.020;2024-03-07T05:21:12;4.70;99.90
39067;DHT22;24821;51.988;6.020;2024-03-07T05:23:55;4.70;99.90
39067;DHT22;24821;51.988;6.020;2024-03-07T05:26:21;4.70;99.90
39067;DHT22;24821;51.988;6.020;2024-03-07T05:28:46;4.70;99.90
39067;DHT22;24821;51.988;6.020;2024-03-07T05:31:12;4.70;99.90
39067;DHT22;24821;51.988;6.020;2024-03-07T05:33:38;4.60;99.90
39067;DHT22;24821;51.988;6.020;2024-03-07T05:36:04;4.60;99.90
39067;DHT22;24821;51.988;6.020;2024-03-07T05:38:40;4.60;99.90
39067;DHT22;24821;51.988;6.020;2024-03-07T05:41:06;4.60;99.90
39067;DHT22;24821;51.988;6.020;2024-03-07T05:43:31;4.60;99.90
39067;DHT22;24821;51.988;6.020;2024-03-07T05:45:57;4.60;99.90
39067;DHT22;24821;51.988;6.020;2024-03-07T05:48:25;4.60;99.90
39067;DHT22;24821;51.988;6.020;2024-03-07T05:50:51;4.60;99.90
39067;DHT22;24821;51.988;6.020;2024-03-07T05:53:16;4.50;99.90
39067;DHT22;24821;51.988;6.020;2024-03-07T05:55:43;4.50;99.90
39067;DHT22;24821;51.988;6.020;2024-03-07T05:58:08;4.50;99.90
39067;DHT22;24821;51.988;6.020;2024-03-07T06:00:35;4.50;99.90
39067;DHT22;24821;51.988;6.020;2024-03-07T06:03:05;4.50;99.90
39067;DHT22;24821;51.988;6.020;2024-03-07T06:05:33;4.50;99.90
39067;DHT22;24821;51.988;6.020;2024-03-07T06:07:59;4.40;99.90
39067;DHT22;24821;51.988;6.020;2024-03-07T06:10:24;4.40;99.90
39067;DHT22;24821;51.988;6.020;2024-03-07T06:12:50;4.40;99.90
39067;DHT22;24821;51.988;6.020;2024-03-07T06:15:16;4.40;99.90
39067;DHT22;24821;51.988;6.020;2024-03-07T06:17:42;4.40;99.90
39067;DHT22;24821;51.988;6.020;2024-03-07T06:20:12;4.40;99.90
39067;DHT22;24821;51.988;6.020;2024-03-07T06:22:51;4.40;99.90
39067;DHT22;24821;51.988;6.020;2024-03-07T06:25:17;4.40;99.90
39067;DHT22;24821;51.988;6.020;2024-03-07T06:27:46;4.30;99.90
39067;DHT22;24821;51.988;6.020;2024-03-07T06:30:14;4.30;99.90
39067;DHT22;24821;51.988;6.020;2024-03-07T06:32:43;4.30;99.90
39067;DHT22;24821;51.988;6.020;2024-03-07T06:35:08;4.30;99.90
39067;DHT22;24821;51.988;6.020;2024-03-07T06:37:35;4.30;99.90
39067;DHT22;24821;51.988;6.020;2024-03-07T06:40:01;4.30;99.90
39067;DHT22;24821;51.988;6.020;2024-03-07T06:42:29;4.30;99.90
39067;DHT22;24821;51.988;6.020;2024-03-07T06:44:54;4.30;99.90
39067;DHT22;24821;51.988;6.020;2024-03-07T06:47:19;4.30;99.90
39067;DHT22;24821;51.988;6.020;2024-03-07T06:49:45;4.30;99.90
39067;DHT22;24821;51.988;6.020;2024-03-07T06:52:11;4.30;99.90
39067;DHT22;24821;51.988;6.020;2024-03-07T06:54:36;4.30;99.90
39067;DHT22;24821;51.988;6.020;2024-03-07T06:57:02;4.30;99.90
39067;DHT22;24821;51.988;6.020;2024-03-07T06:59:28;4.30;99.90
39067;DHT22;24821;51.988;6.020;2024-03-07T07:01:53;4.30;99.90
39067;DHT22;24821;51.988;6.020;2024-03-07T07:04:19;4.40;99.90
39067;DHT22;24821;51.988;6.020;2024-03-07T07:06:45;4.40;99.90
39067;DHT22;24821;51.988;6.020;2024-03-07T07:09:10;4.40;99.90
39067;DHT22;24821;51.988;6.020;2024-03-07T07:11:36;4.40;99.90
39067;DHT22;24821;51.988;6.020;2024-03-07T07:14:01;4.40;99.90
39067;DHT22;24821;51.988;6.020;2024-03-07T07:16:29;4.50;99.90
39067;DHT22;24821;51.988;6.020;2024-03-07T07:18:56;4.50;99.90
39067;DHT22;24821;51.988;6.020;2024-03-07T07:21:22;4.50;99.90
39067;DHT22;24821;51.988;6.020;2024-03-07T07:23:47;4.50;99.90
39067;DHT22;24821;51.988;6.020;2024-03-07T07:26:12;4.60;99.90
39067;DHT22;24821;51.988;6.020;2024-03-07T07:28:38;4.60;99.90
39067;DHT22;24821;51.988;6.020;2024-03-07T07:31:04;4.70;99.90
39067;DHT22;24821;51.988;6.020;2024-03-07T07:33:30;4.80;99.90
39067;DHT22;24821;51.988;6.020;2024-03-07T07:35:56;4.90;99.90
39067;DHT22;24821;51.988;6.020;2024-03-07T07:38:22;5.10;99.90
39067;DHT22;24821;51.988;6.020;2024-03-07T07:40:47;5.20;99.90
39067;DHT22;24821;51.988;6.020;2024-03-07T07:43:14;5.30;99.90
39067;DHT22;24821;51.988;6.020;2024-03-07T07:45:40;5.50;99.90
39067;DHT22;24821;51.988;6.020;2024-03-07T07:48:07;5.70;99.90
39067;DHT22;24821;51.988;6.020;2024-03-07T07:50:32;5.80;99.90
39067;DHT22;24821;51.988;6.020;2024-03-07T07:52:59;6.00;99.90
39067;DHT22;24821;51.988;6.020;2024-03-07T07:55:26;6.10;99.90
39067;DHT22;24821;51.988;6.020;2024-03-07T07:57:55;6.20;99.90
39067;DHT22;24821;51.988;6.020;2024-03-07T08:00:22;6.20;99.90
39067;DHT22;24821;51.988;6.020;2024-03-07T08:02:49;6.20;99.90
39067;DHT22;24821;51.988;6.020;2024-03-07T08:05:14;6.40;99.90
39067;DHT22;24821;51.988;6.020;2024-03-07T08:07:43;6.50;99.90
39067;DHT22;24821;51.988;6.020;2024-03-07T08:10:09;6.60;99.90
39067;DHT22;24821;51.988;6.020;2024-03-07T08:12:34;6.80;99.90
39067;DHT22;24821;51.988;6.020;2024-03-07T08:15:03;6.90;99.90
39067;DHT22;24821;51.988;6.020;2024-03-07T08:17:28;7.00;99.90
39067;DHT22;24821;51.988;6.020;2024-03-07T08:19:54;7.10;99.90
39067;DHT22;24821;51.988;6.020;2024-03-07T08:22:19;7.10;99.90
39067;DHT22;24821;51.988;6.020;2024-03-07T08:24:44;7.10;99.90
39067;DHT22;24821;51.988;6.020;2024-03-07T08:27:11;7.00;99.90
39067;DHT22;24821;51.988;6.020;2024-03-07T08:29:36;6.90;99.90
39067;DHT22;24821;51.988;6.020;2024-03-07T08:32:02;6.80;99.90
39067;DHT22;24821;51.988;6.020;2024-03-07T08:34:28;6.80;99.90
39067;DHT22;24821;51.988;6.020;2024-03-07T08:36:53;6.70;99.90
39067;DHT22;24821;51.988;6.020;2024-03-07T08:39:19;6.70;99.90
39067;DHT22;24821;51.988;6.020;2024-03-07T08:41:44;6.70;99.90
39067;DHT22;24821;51.988;6.020;2024-03-07T08:44:11;6.70;99.90
39067;DHT22;24821;51.988;6.020;2024-03-07T08:46:38;6.70;99.90
39067;DHT22;24821;51.988;6.020;2024-03-07T08:49:04;6.70;99.90
39067;DHT22;24821;51.988;6.020;2024-03-07T08:51:30;6.70;99.90
39067;DHT22;24821;51.988;6.020;2024-03-07T08:53:56;6.80;99.90
39067;DHT22;24821;51.988;6.020;2024-03-07T08:56:21;6.80;99.90
39067;DHT22;24821;51.988;6.020;2024-03-07T08:58:48;6.80;99.90
39067;DHT22;24821;51.988;6.020;2024-03-07T09:01:13;6.90;99.90
39067;DHT22;24821;51.988;6.020;2024-03-07T09:03:39;6.90;99.90
39067;DHT22;24821;51.988;6.020;2024-03-07T09:06:04;7.00;99.90
39067;DHT22;24821;51.988;6.020;2024-03-07T09:08:30;7.10;99.90
39067;DHT22;24821;51.988;6.020;2024-03-07T09:10:56;7.10;99.90
39067;DHT22;24821;51.988;6.020;2024-03-07T09:13:23;7.20;99.90
39067;DHT22;24821;51.988;6.020;2024-03-07T09:15:48;7.20;99.90
39067;DHT22;24821;51.988;6.020;2024-03-07T09:18:14;7.20;99.90
39067;DHT22;24821;51.988;6.020;2024-03-07T09:20:40;7.30;99.90
39067;DHT22;24821;51.988;6.020;2024-03-07T09:23:06;7.40;99.90
39067;DHT22;24821;51.988;6.020;2024-03-07T09:25:31;7.50;99.90
39067;DHT22;24821;51.988;6.020;2024-03-07T09:27:58;7.50;99.90
39067;DHT22;24821;51.988;6.020;2024-03-07T09:30:25;7.60;99.90
39067;DHT22;24821;51.988;6.020;2024-03-07T09:32:53;7.70;99.90
39067;DHT22;24821;51.988;6.020;2024-03-07T09:35:20;7.70;99.90
39067;DHT22;24821;51.988;6.020;2024-03-07T09:37:45;7.80;99.90
39067;DHT22;24821;51.988;6.020;2024-03-07T09:40:11;7.90;99.90
39067;DHT22;24821;51.988;6.020;2024-03-07T09:42:46;7.90;99.90
39067;DHT22;24821;51.988;6.020;2024-03-07T09:45:14;8.00;99.90
39067;DHT22;24821;51.988;6.020;2024-03-07T09:47:40;8.00;99.90
39067;DHT22;24821;51.988;6.020;2024-03-07T09:50:05;7.90;99.90
39067;DHT22;24821;51.988;6.020;2024-03-07T09:52:33;7.90;99.90
39067;DHT22;24821;51.988;6.020;2024-03-07T09:55:00;8.00;99.90
39067;DHT22;24821;51.988;6.020;2024-03-07T09:57:26;8.10;99.90
39067;DHT22;24821;51.988;6.020;2024-03-07T09:59:53;8.20;99.90
39067;DHT22;24821;51.988;6.020;2024-03-07T10:02:19;8.30;99.90
39067;DHT22;24821;51.988;6.020;2024-03-07T10:04:48;8.40;99.90
39067;DHT22;24821;51.988;6.020;2024-03-07T10:07:17;8.60;99.90
39067;DHT22;24821;51.988;6.020;2024-03-07T10:09:43;8.60;99.90
39067;DHT22;24821;51.988;6.020;2024-03-07T10:12:09;8.60;99.90
39067;DHT22;24821;51.988;6.020;2024-03-07T10:14:38;8.70;99.90
39067;DHT22;24821;51.988;6.020;2024-03-07T10:17:03;8.70;99.90
39067;DHT22;24821;51.988;6.020;2024-03-07T10:19:29;8.80;99.90
39067;DHT22;24821;51.988;6.020;2024-03-07T10:21:56;8.80;99.90
39067;DHT22;24821;51.988;6.020;2024-03-07T10:24:24;8.80;99.90
39067;DHT22;24821;51.988;6.020;2024-03-07T10:26:50;8.90;99.90
39067;DHT22;24821;51.988;6.020;2024-03-07T10:29:17;8.80;99.90
39067;DHT22;24821;51.988;6.020;2024-03-07T10:31:42;8.90;99.90
39067;DHT22;24821;51.988;6.020;2024-03-07T10:34:09;8.90;99.90
39067;DHT22;24821;51.988;6.020;2024-03-07T10:36:35;8.90;99.90
39067;DHT22;24821;51.988;6.020;2024-03-07T10:39:00;8.90;99.90
39067;DHT22;24821;51.988;6.020;2024-03-07T10:41:27;8.90;99.90
39067;DHT22;24821;51.988;6.020;2024-03-07T10:43:54;8.90;99.90
39067;DHT22;24821;51.988;6.020;2024-03-07T10:46:22;8.90;99.90
39067;DHT22;24821;51.988;6.020;2024-03-07T10:48:49;9.00;99.90
39067;DHT22;24821;51.988;6.020;2024-03-07T10:51:32;9.00;99.90
39067;DHT22;24821;51.988;6.020;2024-03-07T10:54:16;9.00;99.90
39067;DHT22;24821;51.988;6.020;2024-03-07T10:59:18;9.10;99.90
39067;DHT22;24821;51.988;6.020;2024-03-07T11:01:56;9.20;99.90
39067;DHT22;24821;51.988;6.020;2024-03-07T11:04:24;9.40;99.90
39067;DHT22;24821;51.988;6.020;2024-03-07T11:06:50;9.50;99.90
39067;DHT22;24821;51.988;6.020;2024-03-07T11:09:15;9.60;99.90
39067;DHT22;24821;51.988;6.020;2024-03-07T11:11:48;9.60;99.90
39067;DHT22;24821;51.988;6.020;2024-03-07T11:14:14;9.70;99.90
39067;DHT22;24821;51.988;6.020;2024-03-07T11:16:41;9.80;99.90
39067;DHT22;24821;51.988;6.020;2024-03-07T11:19:20;9.90;99.90
39067;DHT22;24821;51.988;6.020;2024-03-07T11:21:47;9.90;99.90
39067;DHT22;24821;51.988;6.020;2024-03-07T11:24:29;10.00;99.90
39067;DHT22;24821;51.988;6.020;2024-03-07T11:26:57;10.00;99.90
39067;DHT22;24821;51.988;6.020;2024-03-07T11:29:38;10.00;99.90
39067;DHT22;24821;51.988;6.020;2024-03-07T11:32:06;10.00;99.90
39067;DHT22;24821;51.988;6.020;2024-03-07T11:34:31;10.00;99.90
39067;DHT22;24821;51.988;6.020;2024-03-07T11:36:57;10.20;99.90
39067;DHT22;24821;51.988;6.020;2024-03-07T11:42:09;10.20;99.90
39067;DHT22;24821;51.988;6.020;2024-03-07T11:44:45;10.20;99.90
39067;DHT22;24821;51.988;6.020;2024-03-07T11:47:12;10.10;99.90
39067;DHT22;24821;51.988;6.020;2024-03-07T11:49:39;10.10;99.90
39067;DHT22;24821;51.988;6.020;2024-03-07T11:52:04;10.10;99.90
39067;DHT22;24821;51.988;6.020;2024-03-07T11:54:39;10.10;99.90
39067;DHT22;24821;51.988;6.020;2024-03-07T11:57:09;10.10;99.90
39067;DHT22;24821;51.988;6.020;2024-03-07T11:59:39;10.10;99.90
39067;DHT22;24821;51.988;6.020;2024-03-07T12:02:05;10.00;99.90
39067;DHT22;24821;51.988;6.020;2024-03-07T12:04:30;9.90;99.90
39067;DHT22;24821;51.988;6.020;2024-03-07T12:06:57;9.90;99.90
39067;DHT22;24821;51.988;6.020;2024-03-07T12:09:25;9.90;99.90
39067;DHT22;24821;51.988;6.020;2024-03-07T12:11:51;9.90;99.90
39067;DHT22;24821;51.988;6.020;2024-03-07T12:14:21;9.90;99.90
39067;DHT22;24821;51.988;6.020;2024-03-07T12:16:46;9.90;99.90
39067;DHT22;24821;51.988;6.020;2024-03-07T12:19:12;9.90;99.90
39067;DHT22;24821;51.988;6.020;2024-03-07T12:21:38;9.90;99.90
39067;DHT22;24821;51.988;6.020;2024-03-07T12:24:13;9.90;99.90
39067;DHT22;24821;51.988;6.020;2024-03-07T12:26:39;9.90;99.90
39067;DHT22;24821;51.988;6.020;2024-03-07T12:29:11;9.90;99.90
39067;DHT22;24821;51.988;6.020;2024-03-07T12:31:37;10.00;99.90
39067;DHT22;24821;51.988;6.020;2024-03-07T12:34:02;10.00;99.90
39067;DHT22;24821;51.988;6.020;2024-03-07T12:36:30;9.90;99.90
39067;DHT22;24821;51.988;6.020;2024-03-07T12:39:21;9.90;99.90
39067;DHT22;24821;51.988;6.020;2024-03-07T12:41:50;9.80;99.90
39067;DHT22;24821;51.988;6.020;2024-03-07T12:44:19;9.80;99.90
39067;DHT22;24821;51.988;6.020;2024-03-07T12:46:47;9.80;99.90
39067;DHT22;24821;51.988;6.020;2024-03-07T12:49:14;9.80;99.90
39067;DHT22;24821;51.988;6.020;2024-03-07T12:51:43;9.80;99.90
39067;DHT22;24821;51.988;6.020;2024-03-07T12:54:09;9.90;99.90
39067;DHT22;24821;51.988;6.020;2024-03-07T12:56:35;9.90;99.90
39067;DHT22;24821;51.988;6.020;2024-03-07T12:59:05;9.90;99.90
39067;DHT22;24821;51.988;6.020;2024-03-07T13:01:37;9.90;99.90
39067;DHT22;24821;51.988;6.020;2024-03-07T13:04:10;9.90;99.90
39067;DHT22;24821;51.988;6.020;2024-03-07T13:06:36;9.90;99.90
39067;DHT22;24821;51.988;6.020;2024-03-07T13:09:02;9.90;99.90
39067;DHT22;24821;51.988;6.020;2024-03-07T13:11:28;10.00;99.90
39067;DHT22;24821;51.988;6.020;2024-03-07T13:13:57;10.10;99.90
39067;DHT22;24821;51.988;6.020;2024-03-07T13:16:23;10.10;99.90
39067;DHT22;24821;51.988;6.020;2024-03-07T13:18:53;10.10;99.90
39067;DHT22;24821;51.988;6.020;2024-03-07T13:21:19;10.10;99.90
39067;DHT22;24821;51.988;6.020;2024-03-07T13:23:45;10.00;99.90
39067;DHT22;24821;51.988;6.020;2024-03-07T13:26:11;10.00;99.90
39067;DHT22;24821;51.988;6.020;2024-03-07T13:28:42;10.00;99.90
39067;DHT22;24821;51.988;6.020;2024-03-07T13:31:07;9.90;99.90
39067;DHT22;24821;51.988;6.020;2024-03-07T13:33:33;10.00;99.90
39067;DHT22;24821;51.988;6.020;2024-03-07T13:35:58;10.00;99.90
39067;DHT22;24821;51.988;6.020;2024-03-07T13:38:26;10.00;99.90
39067;DHT22;24821;51.988;6.020;2024-03-07T13:40:51;10.10;99.90
39067;DHT22;24821;51.988;6.020;2024-03-07T13:43:18;10.00;99.90
39067;DHT22;24821;51.988;6.020;2024-03-07T13:45:43;10.10;99.90
39067;DHT22;24821;51.988;6.020;2024-03-07T13:48:10;10.10;99.90
39067;DHT22;24821;51.988;6.020;2024-03-07T13:50:36;10.10;99.90
39067;DHT22;24821;51.988;6.020;2024-03-07T13:53:03;10.10;99.90
39067;DHT22;24821;51.988;6.020;2024-03-07T13:58:05;10.00;99.90
39067;DHT22;24821;51.988;6.020;2024-03-07T14:00:44;9.90;99.90
39067;DHT22;24821;51.988;6.020;2024-03-07T14:03:26;9.90;99.90
39067;DHT22;24821;51.988;6.020;2024-03-07T14:06:05;9.90;99.90
39067;DHT22;24821;51.988;6.020;2024-03-07T14:16:39;10.10;99.90
39067;DHT22;24821;51.988;6.020;2024-03-07T14:21:58;10.10;99.90
39067;DHT22;24821;51.988;6.020;2024-03-07T14:27:15;10.10;99.90
39067;DHT22;24821;51.988;6.020;2024-03-07T14:32:28;10.40;99.90
39067;DHT22;24821;51.988;6.020;2024-03-07T14:37:49;10.40;99.90
39067;DHT22;24821;51.988;6.020;2024-03-07T14:40:17;10.40;99.90
39067;DHT22;24821;51.988;6.020;2024-03-07T14:42:44;10.40;99.90
39067;DHT22;24821;51.988;6.020;2024-03-07T14:45:11;10.40;99.90
39067;DHT22;24821;51.988;6.020;2024-03-07T14:47:38;10.40;99.90
39067;DHT22;24821;51.988;6.020;2024-03-07T14:50:04;10.40;99.90
39067;DHT22;24821;51.988;6.020;2024-03-07T14:52:29;10.40;99.90
39067;DHT22;24821;51.988;6.020;2024-03-07T14:54:57;10.30;99.90
39067;DHT22;24821;51.988;6.020;2024-03-07T14:57:22;10.20;99.90
39067;DHT22;24821;51.988;6.020;2024-03-07T14:59:48;10.10;99.90
39067;DHT22;24821;51.988;6.020;2024-03-07T15:02:15;10.20;99.90
39067;DHT22;24821;51.988;6.020;2024-03-07T15:04:40;10.20;99.90
39067;DHT22;24821;51.988;6.020;2024-03-07T15:07:06;10.20;99.90
39067;DHT22;24821;51.988;6.020;2024-03-07T15:09:35;10.20;99.90
39067;DHT22;24821;51.988;6.020;2024-03-07T15:12:00;10.20;99.90
39067;DHT22;24821;51.988;6.020;2024-03-07T15:14:26;10.20;99.90
39067;DHT22;24821;51.988;6.020;2024-03-07T15:16:51;10.20;99.90
39067;DHT22;24821;51.988;6.020;2024-03-07T15:19:17;10.30;99.90
39067;DHT22;24821;51.988;6.020;2024-03-07T15:21:43;10.30;99.90
39067;DHT22;24821;51.988;6.020;2024-03-07T15:24:09;10.30;99.90
39067;DHT22;24821;51.988;6.020;2024-03-07T15:26:34;10.20;99.90
39067;DHT22;24821;51.988;6.020;2024-03-07T15:29:00;10.20;99.90
39067;DHT22;24821;51.988;6.020;2024-03-07T15:31:26;10.10;99.90
39067;DHT22;24821;51.988;6.020;2024-03-07T15:33:51;10.10;99.90
39067;DHT22;24821;51.988;6.020;2024-03-07T15:36:17;10.00;99.90
39067;DHT22;24821;51.988;6.020;2024-03-07T15:38:43;9.90;99.90
39067;DHT22;24821;51.988;6.020;2024-03-07T15:41:09;9.80;99.90
39067;DHT22;24821;51.988;6.020;2024-03-07T15:43:37;9.70;99.90
39067;DHT22;24821;51.988;6.020;2024-03-07T15:46:03;9.50;99.90
39067;DHT22;24821;51.988;6.020;2024-03-07T15:48:29;9.50;99.90
39067;DHT22;24821;51.988;6.020;2024-03-07T15:50:54;9.40;99.90
39067;DHT22;24821;51.988;6.020;2024-03-07T15:53:23;9.30;99.90
39067;DHT22;24821;51.988;6.020;2024-03-07T15:55:48;9.30;99.90
39067;DHT22;24821;51.988;6.020;2024-03-07T15:58:14;9.40;99.90
39067;DHT22;24821;51.988;6.020;2024-03-07T16:00:42;9.40;99.90
39067;DHT22;24821;51.988;6.020;2024-03-07T16:03:08;9.50;99.90
39067;DHT22;24821;51.988;6.020;2024-03-07T16:05:36;9.60;99.90
39067;DHT22;24821;51.988;6.020;2024-03-07T16:08:02;9.70;99.90